createdAt,value
2023-06-07T05:31:26.022Z,25.00
2023-06-07T05:32:26.858Z,25.00
2023-06-07T05:33:25.875Z,25.00
2023-06-07T05:34:26.825Z,25.00
2023-06-07T05:35:26.899Z,25.00
2023-06-07T05:36:26.825Z,0.00
2023-06-07T05:37:25.847Z,0.00
2023-06-07T05:38:25.799Z,0.00
2023-06-07T05:39:26.833Z,0.00
2023-06-07T05:40:25.801Z,0.00
2023-06-07T05:41:26.805Z,0.00
2023-06-07T05:42:26.785Z,0.00
2023-06-07T05:43:26.779Z,0.00
2023-06-07T05:44:25.775Z,0.00
2023-06-07T05:45:26.773Z,0.00
2023-06-07T05:46:26.814Z,0.00
2023-06-07T05:47:26.865Z,0.00
2023-06-07T05:48:25.742Z,0.00
2023-06-07T05:49:26.750Z,0.00
2023-06-07T05:50:26.725Z,0.00
2023-06-07T05:51:25.718Z,0.00
2023-06-07T05:52:26.737Z,0.00
2023-06-07T05:53:26.711Z,0.00
2023-06-07T05:54:25.707Z,0.00
2023-06-07T05:55:25.694Z,0.00
2023-06-07T05:56:26.730Z,0.00
2023-06-07T05:57:26.671Z,0.00
2023-06-07T05:58:26.686Z,0.00
2023-06-07T05:59:25.649Z,0.00
2023-06-07T06:00:26.642Z,0.00
2023-06-07T06:01:27.619Z,0.00
2023-06-07T06:02:26.815Z,0.00
2023-06-07T06:03:26.717Z,0.00
2023-06-07T06:04:26.632Z,0.00
2023-06-07T06:05:26.610Z,0.00
2023-06-07T06:06:26.617Z,0.00
2023-06-07T06:07:26.601Z,0.00
2023-06-07T06:08:26.648Z,0.00
2023-06-07T06:09:26.650Z,0.00
2023-06-07T06:10:26.860Z,0.00
2023-06-07T06:11:26.657Z,0.00
2023-06-07T06:12:26.738Z,13.24
2023-06-07T06:13:25.779Z,28.33
2023-06-07T06:14:26.827Z,26.50
2023-06-07T06:15:25.863Z,27.32
2023-06-07T06:16:26.928Z,30.57
2023-06-07T06:17:26.918Z,24.72
2023-06-07T06:18:25.929Z,25.07
2023-06-07T06:19:26.955Z,30.62
2023-06-07T06:20:25.944Z,45.85
2023-06-07T06:21:26.934Z,30.55
2023-06-07T06:22:26.925Z,36.10
2023-06-07T06:23:26.972Z,25.00
2023-06-07T06:24:25.938Z,28.53
2023-06-07T06:25:26.932Z,25.00
2023-06-07T06:26:26.062Z,35.60
2023-06-07T06:27:27.031Z,50.82
2023-06-07T06:28:26.991Z,59.19
2023-06-07T06:29:27.027Z,43.41
2023-06-07T06:30:27.037Z,25.25
2023-06-07T06:31:27.078Z,28.79
2023-06-07T06:32:26.175Z,25.00
2023-06-07T06:33:27.103Z,25.85
2023-06-07T06:34:27.182Z,29.16
2023-06-07T06:35:27.297Z,38.24
2023-06-07T06:36:27.272Z,52.72
2023-06-07T06:37:27.306Z,52.39
2023-06-07T06:38:27.364Z,49.49
2023-06-07T06:39:27.418Z,39.33
2023-06-07T06:40:27.561Z,25.00
2023-06-07T06:41:27.511Z,27.29
2023-06-07T06:42:26.564Z,28.18
2023-06-07T06:43:27.598Z,25.00
2023-06-07T06:44:27.635Z,25.06
2023-06-07T06:45:27.694Z,28.53
2023-06-07T06:46:27.724Z,25.11
2023-06-07T06:47:27.754Z,30.81
2023-06-07T06:48:27.785Z,41.45
2023-06-07T06:49:27.835Z,41.05
2023-06-07T06:50:33.028Z,36.27
2023-06-07T06:51:28.102Z,23.00
2023-06-07T06:52:27.884Z,0.00
2023-06-07T06:53:27.879Z,0.00
2023-06-07T06:54:27.861Z,0.00
2023-06-07T06:55:27.913Z,0.00
2023-06-07T06:56:28.578Z,0.00
2023-06-07T06:57:27.865Z,12.73
2023-06-07T06:58:27.839Z,27.55
2023-06-07T06:59:26.850Z,33.01
2023-06-07T07:00:27.829Z,35.02
2023-06-07T07:01:27.863Z,25.31
2023-06-07T07:02:26.910Z,25.16
2023-06-07T07:03:27.804Z,25.73
2023-06-07T07:04:27.882Z,25.00
2023-06-07T07:05:30.269Z,32.01
2023-06-07T07:06:27.782Z,32.10
2023-06-07T07:07:26.853Z,32.31
2023-06-07T07:08:27.756Z,24.41
2023-06-07T07:09:27.785Z,21.43
2023-06-07T07:10:26.751Z,18.38
2023-06-07T07:11:26.775Z,25.49
2023-06-07T07:12:27.741Z,25.00
2023-06-07T07:13:27.736Z,32.46
2023-06-07T07:14:26.759Z,38.46
2023-06-07T07:15:26.720Z,43.13
2023-06-07T07:16:26.745Z,53.91
2023-06-07T07:17:27.751Z,38.65
2023-06-07T07:18:27.702Z,25.64
2023-06-07T07:19:27.717Z,25.00
2023-06-07T07:20:26.697Z,28.85
2023-06-07T07:21:26.680Z,30.66
2023-06-07T07:22:29.000Z,17.67
2023-06-07T07:23:27.996Z,28.42
2023-06-07T07:24:27.787Z,30.26
2023-06-07T07:25:27.767Z,30.04
2023-06-07T07:26:26.780Z,35.56
2023-06-07T07:27:27.841Z,44.20
2023-06-07T07:28:27.795Z,44.08
2023-06-07T07:29:28.943Z,40.45
2023-06-07T07:30:26.783Z,48.69
2023-06-07T07:31:27.828Z,42.77
2023-06-07T07:32:27.896Z,37.63
2023-06-07T07:33:27.811Z,25.73
2023-06-07T07:34:26.885Z,25.00
2023-06-07T07:35:27.796Z,25.88
2023-06-07T07:36:27.802Z,27.09
2023-06-07T07:37:27.847Z,20.97
2023-06-07T07:38:27.832Z,25.00
2023-06-07T07:39:26.888Z,25.00
2023-06-07T07:40:26.864Z,30.71
2023-06-07T07:41:27.878Z,26.31
2023-06-07T07:42:27.852Z,34.28
2023-06-07T07:43:30.435Z,25.99
2023-06-07T07:44:27.082Z,23.74
2023-06-07T07:45:27.110Z,27.52
2023-06-07T07:46:28.625Z,30.35
2023-06-07T07:47:28.188Z,42.13
2023-06-07T07:48:28.158Z,60.95
2023-06-07T07:49:28.205Z,68.07
2023-06-07T07:50:28.214Z,75.55
2023-06-07T07:51:27.266Z,86.64
2023-06-07T07:52:28.591Z,83.50
2023-06-07T07:53:28.419Z,113.07
2023-06-07T07:54:28.398Z,116.65
2023-06-07T07:55:27.407Z,137.45
2023-06-07T07:56:28.421Z,158.33
2023-06-07T07:57:27.465Z,195.29
2023-06-07T07:58:27.521Z,215.32
2023-06-07T07:59:27.574Z,247.10
2023-06-07T08:00:28.601Z,246.92
2023-06-07T08:01:27.625Z,239.63
2023-06-07T08:02:27.735Z,238.74
2023-06-07T08:03:28.787Z,235.98
2023-06-07T08:04:27.676Z,250.17
2023-06-07T08:05:28.668Z,247.04
2023-06-07T08:06:27.752Z,250.00
2023-06-07T08:07:28.798Z,247.36
2023-06-07T08:08:28.836Z,246.69
2023-06-07T08:09:28.889Z,245.25
2023-06-07T08:10:28.998Z,244.25
2023-06-07T08:11:29.194Z,251.20
2023-06-07T08:12:29.079Z,247.14
2023-06-07T08:13:29.113Z,239.59
2023-06-07T08:14:28.159Z,233.92
2023-06-07T08:15:28.206Z,238.85
2023-06-07T08:16:29.278Z,247.53
2023-06-07T08:17:29.300Z,249.01
2023-06-07T08:18:29.298Z,245.07
2023-06-07T08:19:29.334Z,236.66
2023-06-07T08:20:29.378Z,234.53
2023-06-07T08:21:29.404Z,232.76
2023-06-07T08:22:29.416Z,232.70
2023-06-07T08:23:29.527Z,235.27
2023-06-07T08:24:29.482Z,232.78
2023-06-07T08:25:28.523Z,230.30
2023-06-07T08:26:29.550Z,237.26
2023-06-07T08:27:29.616Z,241.12
2023-06-07T08:28:29.627Z,236.96
2023-06-07T08:29:29.619Z,234.25
2023-06-07T08:30:29.649Z,233.77
2023-06-07T08:31:29.654Z,230.27
2023-06-07T08:32:28.695Z,228.84
2023-06-07T08:33:29.659Z,238.20
2023-06-07T08:34:31.850Z,241.70
2023-06-07T08:35:29.747Z,242.26
2023-06-07T08:36:29.792Z,242.50
2023-06-07T08:37:29.785Z,245.44
2023-06-07T08:38:28.766Z,246.54
2023-06-07T08:39:29.763Z,260.67
2023-06-07T08:40:29.753Z,229.64
2023-06-07T08:41:29.777Z,178.28
2023-06-07T08:42:30.124Z,186.46
2023-06-07T08:43:30.004Z,187.78
2023-06-07T08:44:29.615Z,224.32
2023-06-07T08:45:30.008Z,238.86
2023-06-07T08:46:29.014Z,253.20
2023-06-07T08:47:29.093Z,244.18
2023-06-07T08:48:29.058Z,248.93
2023-06-07T08:49:29.088Z,237.97
2023-06-07T08:50:30.120Z,212.08
2023-06-07T08:51:30.191Z,160.91
2023-06-07T08:52:30.234Z,133.35
2023-06-07T08:53:30.271Z,133.82
2023-06-07T08:54:30.322Z,143.66
2023-06-07T08:55:30.345Z,157.46
2023-06-07T08:56:30.506Z,162.42
2023-06-07T08:57:29.687Z,169.47
2023-06-07T08:58:30.510Z,176.76
2023-06-07T08:59:29.748Z,186.41
2023-06-07T09:00:29.563Z,196.00
2023-06-07T09:01:31.783Z,194.61
2023-06-07T09:02:29.646Z,196.66
2023-06-07T09:03:30.744Z,214.91
2023-06-07T09:04:30.612Z,218.46
2023-06-07T09:05:30.584Z,208.19
2023-06-07T09:06:30.576Z,212.09
2023-06-07T09:07:30.580Z,221.75
2023-06-07T09:08:30.581Z,235.72
2023-06-07T09:09:31.967Z,242.27
2023-06-07T09:10:30.554Z,242.35
2023-06-07T09:11:29.578Z,237.71
2023-06-07T09:12:30.569Z,246.06
2023-06-07T09:13:30.535Z,249.00
2023-06-07T09:14:30.520Z,256.77
2023-06-07T09:15:31.937Z,246.28
2023-06-07T09:16:29.657Z,246.81
2023-06-07T09:17:30.563Z,248.61
2023-06-07T09:18:30.545Z,251.63
2023-06-07T09:19:30.493Z,247.34
2023-06-07T09:20:30.490Z,249.31
2023-06-07T09:21:30.477Z,240.86
2023-06-07T09:22:30.512Z,246.45
2023-06-07T09:23:30.512Z,241.03
2023-06-07T09:24:30.473Z,249.72
2023-06-07T09:25:29.462Z,250.00
2023-06-07T09:26:30.461Z,237.04
2023-06-07T09:27:30.467Z,226.08
2023-06-07T09:28:29.418Z,241.59
2023-06-07T09:29:30.512Z,224.76
2023-06-07T09:30:30.414Z,219.20
2023-06-07T09:31:29.507Z,215.53
2023-06-07T09:32:32.723Z,215.74
2023-06-07T09:33:30.514Z,211.04
2023-06-07T09:34:30.395Z,210.52
2023-06-07T09:35:30.421Z,209.32
2023-06-07T09:36:29.440Z,199.79
2023-06-07T09:37:30.366Z,206.54
2023-06-07T09:38:30.375Z,198.48
2023-06-07T09:39:30.371Z,197.81
2023-06-07T09:40:29.353Z,191.36
2023-06-07T09:41:30.350Z,187.34
2023-06-07T09:42:30.357Z,196.86
2023-06-07T09:43:30.346Z,196.19
2023-06-07T09:44:29.314Z,187.58
2023-06-07T09:45:30.365Z,184.47
2023-06-07T09:46:30.354Z,191.34
2023-06-07T09:47:30.878Z,192.92
2023-06-07T09:48:30.390Z,192.47
2023-06-07T09:49:29.377Z,172.94
2023-06-07T09:50:29.273Z,170.93
2023-06-07T09:51:29.291Z,168.59
2023-06-07T09:52:31.080Z,177.14
2023-06-07T09:53:29.249Z,175.19
2023-06-07T09:54:29.265Z,195.58
2023-06-07T09:55:29.270Z,194.14
2023-06-07T09:56:29.397Z,157.35
2023-06-07T09:57:30.340Z,130.47
2023-06-07T09:58:29.342Z,144.29
2023-06-07T09:59:30.363Z,169.49
2023-06-07T10:00:30.433Z,171.52
2023-06-07T10:01:29.545Z,191.67
2023-06-07T10:02:30.721Z,164.47
2023-06-07T10:03:30.783Z,150.90
2023-06-07T10:04:29.773Z,133.02
2023-06-07T10:05:30.780Z,107.30
2023-06-07T10:06:29.802Z,89.95
2023-06-07T10:07:29.864Z,85.71
2023-06-07T10:08:30.908Z,85.81
2023-06-07T10:09:30.936Z,57.88
2023-06-07T10:10:30.930Z,41.33
2023-06-07T10:11:29.946Z,25.00
2023-06-07T10:12:31.078Z,32.10
2023-06-07T10:13:31.021Z,29.06
2023-06-07T10:14:31.035Z,35.80
2023-06-07T10:15:31.089Z,20.82
2023-06-07T10:16:30.087Z,36.65
2023-06-07T10:17:31.086Z,36.90
2023-06-07T10:18:31.144Z,25.23
2023-06-07T10:19:30.119Z,27.28
2023-06-07T10:20:31.101Z,24.69
2023-06-07T10:21:31.154Z,22.48
2023-06-07T10:22:31.138Z,26.28
2023-06-07T10:23:30.326Z,39.01
2023-06-07T10:24:31.205Z,37.53
2023-06-07T10:25:31.149Z,53.03
2023-06-07T10:26:31.155Z,55.43
2023-06-07T10:27:31.228Z,60.74
2023-06-07T10:28:31.243Z,63.13
2023-06-07T10:29:30.316Z,59.90
2023-06-07T10:30:30.340Z,65.42
2023-06-07T10:31:31.404Z,64.08
2023-06-07T10:32:30.500Z,78.19
2023-06-07T10:33:31.433Z,85.40
2023-06-07T10:34:31.454Z,92.44
2023-06-07T10:35:31.554Z,77.33
2023-06-07T10:36:30.468Z,84.62
2023-06-07T10:37:31.428Z,80.08
2023-06-07T10:38:31.466Z,74.08
2023-06-07T10:39:30.468Z,67.47
2023-06-07T10:40:31.522Z,65.19
2023-06-07T10:41:30.567Z,55.90
2023-06-07T10:42:30.605Z,54.55
2023-06-07T10:43:31.645Z,65.75
2023-06-07T10:44:30.675Z,68.35
2023-06-07T10:45:31.668Z,76.45
2023-06-07T10:46:30.861Z,99.91
2023-06-07T10:47:31.804Z,112.56
2023-06-07T10:48:31.760Z,116.69
2023-06-07T10:49:30.733Z,117.08
2023-06-07T10:50:31.725Z,121.07
2023-06-07T10:51:31.872Z,127.81
2023-06-07T10:52:30.750Z,134.68
2023-06-07T10:53:31.736Z,139.26
2023-06-07T10:54:30.780Z,140.76
2023-06-07T10:55:31.727Z,149.41
2023-06-07T10:56:31.777Z,147.03
2023-06-07T10:57:31.733Z,152.34
2023-06-07T10:58:31.786Z,158.84
2023-06-07T10:59:31.733Z,158.75
2023-06-07T11:00:30.866Z,162.37
2023-06-07T11:01:30.792Z,166.62
2023-06-07T11:02:32.045Z,166.68
2023-06-07T11:03:32.065Z,172.33
2023-06-07T11:04:30.908Z,177.97
2023-06-07T11:05:33.846Z,181.49
2023-06-07T11:06:31.759Z,185.49
2023-06-07T11:07:30.829Z,188.64
2023-06-07T11:08:30.740Z,191.92
2023-06-07T11:09:31.709Z,195.22
2023-06-07T11:10:31.794Z,198.19
2023-06-07T11:11:30.715Z,202.11
2023-06-07T11:12:30.730Z,205.68
2023-06-07T11:13:31.706Z,207.81
2023-06-07T11:14:30.757Z,211.25
2023-06-07T11:15:30.710Z,211.12
2023-06-07T11:16:31.698Z,213.09
2023-06-07T11:17:31.685Z,214.31
2023-06-07T11:18:30.689Z,217.94
2023-06-07T11:19:31.700Z,221.62
2023-06-07T11:20:31.723Z,223.76
2023-06-07T11:21:31.666Z,225.39
2023-06-07T11:22:30.629Z,226.90
2023-06-07T11:23:30.802Z,229.26
2023-06-07T11:24:31.741Z,228.75
2023-06-07T11:25:31.622Z,230.47
2023-06-07T11:26:31.620Z,233.28
2023-06-07T11:27:31.605Z,233.61
2023-06-07T11:28:30.657Z,235.44
2023-06-07T11:29:31.578Z,236.66
2023-06-07T11:30:30.568Z,238.22
2023-06-07T11:31:31.590Z,239.31
2023-06-07T11:32:32.368Z,240.85
2023-06-07T11:33:31.706Z,240.95
2023-06-07T11:34:31.576Z,242.50
2023-06-07T11:35:30.539Z,243.90
2023-06-07T11:36:30.548Z,244.43
2023-06-07T11:37:31.521Z,244.83
2023-06-07T11:38:31.525Z,246.81
2023-06-07T11:39:31.577Z,247.27
2023-06-07T11:40:30.504Z,248.87
2023-06-07T11:41:31.510Z,248.54
2023-06-07T11:42:30.486Z,248.79
2023-06-07T11:43:31.491Z,248.96
2023-06-07T11:44:31.472Z,248.88
2023-06-07T11:45:31.525Z,249.42
2023-06-07T11:46:30.499Z,249.87
2023-06-07T11:47:31.564Z,249.91
2023-06-07T11:48:31.770Z,250.00
2023-06-07T11:49:31.442Z,249.29
2023-06-07T11:50:31.420Z,249.66
2023-06-07T11:51:31.422Z,250.00
2023-06-07T11:52:31.440Z,248.32
2023-06-07T11:53:31.413Z,248.63
2023-06-07T11:54:31.389Z,248.52
2023-06-07T11:55:31.425Z,249.22
2023-06-07T11:56:31.414Z,249.46
2023-06-07T11:57:31.407Z,248.34
2023-06-07T11:58:31.479Z,247.55
2023-06-07T11:59:31.435Z,247.84
2023-06-07T12:00:30.569Z,247.46
2023-06-07T12:01:30.515Z,248.69
2023-06-07T12:02:30.576Z,247.83
2023-06-07T12:03:31.697Z,249.07
2023-06-07T12:04:30.700Z,249.24
2023-06-07T12:05:31.766Z,249.65
2023-06-07T12:06:30.832Z,249.62
2023-06-07T12:07:31.871Z,248.54
2023-06-07T12:08:31.856Z,249.99
2023-06-07T12:09:30.913Z,247.15
2023-06-07T12:10:30.980Z,247.28
2023-06-07T12:11:32.134Z,246.60
2023-06-07T12:12:32.082Z,249.58
2023-06-07T12:13:31.135Z,250.07
2023-06-07T12:14:32.181Z,245.33
2023-06-07T12:15:31.293Z,250.00
2023-06-07T12:16:31.406Z,248.18
2023-06-07T12:17:32.459Z,247.90
2023-06-07T12:18:32.457Z,245.68
2023-06-07T12:19:32.480Z,247.39
2023-06-07T12:20:31.544Z,249.29
2023-06-07T12:21:32.601Z,248.19
2023-06-07T12:22:31.676Z,246.59
2023-06-07T12:23:32.823Z,246.74
2023-06-07T12:24:32.772Z,248.72
2023-06-07T12:25:31.892Z,248.60
2023-06-07T12:26:32.915Z,244.50
2023-06-07T12:27:33.025Z,246.86
2023-06-07T12:28:33.052Z,248.82
2023-06-07T12:29:33.106Z,242.57
2023-06-07T12:30:33.049Z,248.51
2023-06-07T12:31:33.259Z,249.23
2023-06-07T12:32:32.316Z,248.53
2023-06-07T12:33:33.367Z,245.97
2023-06-07T12:34:32.404Z,250.00
2023-06-07T12:35:33.487Z,249.21
2023-06-07T12:36:32.526Z,246.36
2023-06-07T12:37:33.603Z,247.72
2023-06-07T12:38:33.651Z,246.92
2023-06-07T12:39:32.751Z,244.92
2023-06-07T12:40:32.816Z,243.17
2023-06-07T12:41:34.283Z,246.85
2023-06-07T12:42:32.924Z,246.08
2023-06-07T12:43:33.045Z,245.29
2023-06-07T12:44:34.043Z,245.56
2023-06-07T12:45:34.097Z,243.02
2023-06-07T12:46:34.205Z,244.32
2023-06-07T12:47:33.230Z,245.45
2023-06-07T12:48:33.258Z,247.01
2023-06-07T12:49:34.369Z,245.99
2023-06-07T12:50:34.372Z,245.63
2023-06-07T12:51:33.423Z,243.31
2023-06-07T12:52:34.486Z,244.49
2023-06-07T12:53:34.532Z,244.57
2023-06-07T12:54:34.569Z,240.92
2023-06-07T12:55:33.634Z,246.51
2023-06-07T12:56:33.691Z,239.87
2023-06-07T12:57:33.715Z,244.44
2023-06-07T12:58:34.777Z,244.65
2023-06-07T12:59:34.901Z,246.70
2023-06-07T13:00:34.848Z,246.55
2023-06-07T13:01:34.993Z,243.08
2023-06-07T13:02:35.015Z,239.41
2023-06-07T13:03:34.107Z,241.42
2023-06-07T13:04:35.079Z,243.25
2023-06-07T13:05:34.105Z,246.37
2023-06-07T13:06:35.142Z,244.00
2023-06-07T13:07:35.195Z,242.46
2023-06-07T13:08:35.208Z,243.37
2023-06-07T13:09:35.414Z,240.37
2023-06-07T13:10:34.273Z,243.37
2023-06-07T13:11:35.303Z,245.84
2023-06-07T13:12:34.336Z,236.77
2023-06-07T13:13:35.396Z,235.04
2023-06-07T13:14:35.485Z,231.41
2023-06-07T13:15:34.625Z,228.99
2023-06-07T13:16:34.609Z,216.54
2023-06-07T13:17:35.953Z,219.11
2023-06-07T13:18:35.665Z,211.00
2023-06-07T13:19:34.660Z,208.39
2023-06-07T13:20:35.712Z,205.75
2023-06-07T13:21:34.758Z,205.69
2023-06-07T13:22:35.815Z,199.50
2023-06-07T13:23:35.919Z,197.83
2023-06-07T13:24:35.888Z,196.86
2023-06-07T13:25:35.959Z,190.53
2023-06-07T13:26:35.964Z,189.33
2023-06-07T13:27:35.002Z,187.44
2023-06-07T13:28:36.039Z,183.01
2023-06-07T13:29:35.120Z,181.52
2023-06-07T13:30:36.127Z,186.23
2023-06-07T13:31:36.218Z,187.13
2023-06-07T13:32:35.332Z,189.94
2023-06-07T13:33:35.222Z,191.72
2023-06-07T13:34:35.263Z,193.74
2023-06-07T13:35:37.940Z,194.62
2023-06-07T13:36:35.287Z,196.44
2023-06-07T13:37:35.264Z,201.47
2023-06-07T13:38:36.265Z,200.37
2023-06-07T13:39:36.245Z,206.44
2023-06-07T13:40:36.252Z,206.20
2023-06-07T13:41:36.241Z,209.12
2023-06-07T13:42:36.240Z,209.48
2023-06-07T13:43:51.304Z,209.11
2023-06-07T13:44:36.225Z,209.27
2023-06-07T13:45:36.234Z,209.71
2023-06-07T13:46:35.274Z,211.41
2023-06-07T13:47:35.291Z,212.58
2023-06-07T13:48:35.213Z,214.86
2023-06-07T13:49:36.193Z,217.24
2023-06-07T13:50:36.156Z,218.79
2023-06-07T13:51:35.214Z,219.47
2023-06-07T13:52:36.169Z,219.85
2023-06-07T13:53:35.200Z,221.26
2023-06-07T13:54:36.227Z,221.04
2023-06-07T13:55:36.124Z,220.22
2023-06-07T13:56:36.139Z,223.08
2023-06-07T13:57:35.114Z,222.34
2023-06-07T13:58:35.150Z,225.90
2023-06-07T13:59:36.180Z,223.17
2023-06-07T14:00:35.216Z,224.82
2023-06-07T14:01:35.353Z,224.39
2023-06-07T14:02:36.507Z,227.00
2023-06-07T14:03:36.484Z,227.53
2023-06-07T14:04:36.402Z,228.09
2023-06-07T14:05:36.579Z,229.27
2023-06-07T14:06:35.356Z,227.78
2023-06-07T14:07:35.441Z,227.93
2023-06-07T14:08:35.418Z,229.09
2023-06-07T14:09:36.544Z,227.25
2023-06-07T14:10:35.591Z,229.31
2023-06-07T14:11:36.521Z,229.66
2023-06-07T14:12:35.520Z,230.75
2023-06-07T14:13:36.556Z,231.19
2023-06-07T14:14:36.602Z,230.33
2023-06-07T14:15:35.614Z,232.67
2023-06-07T14:16:36.700Z,232.81
2023-06-07T14:17:35.694Z,231.16
2023-06-07T14:18:35.683Z,232.19
2023-06-07T14:19:35.755Z,233.36
2023-06-07T14:20:35.754Z,234.48
2023-06-07T14:21:36.799Z,232.77
2023-06-07T14:22:36.788Z,236.24
2023-06-07T14:23:36.811Z,235.82
2023-06-07T14:24:35.843Z,235.59
2023-06-07T14:25:35.869Z,234.51
2023-06-07T14:26:36.891Z,234.63
2023-06-07T14:27:36.888Z,236.82
2023-06-07T14:28:35.953Z,236.00
2023-06-07T14:29:36.929Z,235.16
2023-06-07T14:30:36.946Z,235.90
2023-06-07T14:31:37.034Z,235.70
2023-06-07T14:32:36.988Z,236.90
2023-06-07T14:33:36.967Z,236.01
2023-06-07T14:34:36.983Z,237.05
2023-06-07T14:35:37.018Z,235.76
2023-06-07T14:36:37.783Z,236.23
2023-06-07T14:37:36.999Z,237.91
2023-06-07T14:38:37.045Z,238.62
2023-06-07T14:39:37.032Z,238.91
2023-06-07T14:40:36.990Z,239.46
2023-06-07T14:41:36.969Z,236.34
2023-06-07T14:42:37.112Z,240.51
2023-06-07T14:43:35.966Z,239.45
2023-06-07T14:44:35.965Z,239.72
2023-06-07T14:45:36.017Z,237.30
2023-06-07T14:46:35.940Z,237.93
2023-06-07T14:47:35.944Z,239.01
2023-06-07T14:48:36.941Z,237.90
2023-06-07T14:49:35.914Z,239.62
2023-06-07T14:50:35.924Z,237.34
2023-06-07T14:51:35.934Z,240.43
2023-06-07T14:52:36.895Z,238.59
2023-06-07T14:53:36.915Z,238.57
2023-06-07T14:54:36.901Z,239.88
2023-06-07T14:55:35.888Z,238.97
2023-06-07T14:56:35.869Z,237.51
2023-06-07T14:57:35.861Z,240.08
2023-06-07T14:58:35.851Z,236.40
2023-06-07T14:59:37.089Z,239.47
2023-06-07T15:00:35.864Z,239.24
2023-06-07T15:01:35.869Z,238.32
2023-06-07T15:02:35.848Z,239.50
2023-06-07T15:03:35.907Z,238.22
2023-06-07T15:04:35.831Z,238.99
2023-06-07T15:05:36.804Z,238.39
2023-06-07T15:06:35.785Z,236.14
2023-06-07T15:07:35.828Z,239.58
2023-06-07T15:08:35.810Z,240.13
2023-06-07T15:09:35.809Z,239.18
2023-06-07T15:10:35.800Z,239.86
2023-06-07T15:11:36.816Z,238.65
2023-06-07T15:12:35.761Z,236.92
2023-06-07T15:13:36.767Z,239.51
2023-06-07T15:14:35.746Z,240.17
2023-06-07T15:15:36.761Z,240.76
2023-06-07T15:16:36.841Z,240.36
2023-06-07T15:17:36.756Z,238.85
2023-06-07T15:18:35.723Z,236.56
2023-06-07T15:19:36.711Z,239.13
2023-06-07T15:20:35.688Z,239.93
2023-06-07T15:21:35.734Z,238.67
2023-06-07T15:22:36.710Z,239.58
2023-06-07T15:23:35.731Z,239.27
2023-06-07T15:24:35.684Z,239.19
2023-06-07T15:25:35.679Z,239.33
2023-06-07T15:26:36.656Z,239.20
2023-06-07T15:27:35.637Z,239.01
2023-06-07T15:28:36.648Z,241.50
2023-06-07T15:29:36.665Z,238.59
2023-06-07T15:30:35.629Z,238.57
2023-06-07T15:31:36.645Z,238.66
2023-06-07T15:32:35.676Z,240.40
2023-06-07T15:33:35.600Z,239.90
2023-06-07T15:34:36.589Z,241.03
2023-06-07T15:35:36.601Z,238.30
2023-06-07T15:36:36.605Z,239.05
2023-06-07T15:37:35.574Z,239.17
2023-06-07T15:38:35.562Z,238.06
2023-06-07T15:39:36.602Z,237.91
2023-06-07T15:40:35.561Z,238.78
2023-06-07T15:41:36.564Z,241.12
2023-06-07T15:42:36.542Z,240.67
2023-06-07T15:43:36.561Z,239.64
2023-06-07T15:44:36.530Z,239.29
2023-06-07T15:45:36.545Z,242.71
2023-06-07T15:46:38.261Z,238.65
2023-06-07T15:47:35.579Z,238.74
2023-06-07T15:48:36.513Z,238.90
2023-06-07T15:49:36.494Z,239.40
2023-06-07T15:50:35.502Z,240.26
2023-06-07T15:51:35.480Z,238.29
2023-06-07T15:52:36.486Z,238.39
2023-06-07T15:53:36.475Z,240.46
2023-06-07T15:54:35.487Z,240.73
2023-06-07T15:55:35.552Z,238.99
2023-06-07T15:56:36.445Z,240.58
2023-06-07T15:57:35.435Z,240.03
2023-06-07T15:58:35.442Z,239.78
2023-06-07T15:59:36.428Z,242.98
2023-06-07T16:00:38.861Z,238.70
2023-06-07T16:01:36.480Z,238.86
2023-06-07T16:02:36.415Z,239.28
2023-06-07T16:03:50.670Z,239.28
2023-06-07T16:04:36.494Z,238.91
2023-06-07T16:05:36.384Z,239.22
2023-06-07T16:06:36.374Z,239.98
2023-06-07T16:07:36.387Z,240.40
2023-06-07T16:08:35.344Z,239.62
2023-06-07T16:09:35.343Z,240.40
2023-06-07T16:10:36.325Z,239.20
2023-06-07T16:11:35.359Z,240.06
2023-06-07T16:12:36.315Z,237.21
2023-06-07T16:13:36.318Z,238.09
2023-06-07T16:14:36.330Z,238.06
2023-06-07T16:15:35.285Z,238.60
2023-06-07T16:16:36.398Z,239.19
2023-06-07T16:17:36.350Z,238.93
2023-06-07T16:18:35.293Z,240.11
2023-06-07T16:19:35.288Z,239.87
2023-06-07T16:20:36.258Z,239.34
2023-06-07T16:21:35.256Z,240.44
2023-06-07T16:22:35.259Z,239.11
2023-06-07T16:23:35.282Z,240.51
2023-06-07T16:24:35.271Z,240.88
2023-06-07T16:25:36.385Z,240.18
2023-06-07T16:26:35.235Z,240.96
2023-06-07T16:27:35.234Z,242.34
2023-06-07T16:28:35.199Z,241.58
2023-06-07T16:29:35.213Z,243.86
2023-06-07T16:30:37.955Z,241.17
2023-06-07T16:31:36.314Z,241.30
2023-06-07T16:32:36.209Z,241.77
2023-06-07T16:33:36.171Z,241.72
2023-06-07T16:34:36.163Z,240.74
2023-06-07T16:35:36.163Z,240.82
2023-06-07T16:36:35.160Z,242.30
2023-06-07T16:37:35.152Z,241.98
2023-06-07T16:38:36.143Z,240.38
2023-06-07T16:39:35.148Z,241.95
2023-06-07T16:40:35.122Z,242.51
2023-06-07T16:42:35.136Z,238.90
2023-06-07T16:43:35.145Z,239.08
2023-06-07T16:44:35.181Z,240.28
2023-06-07T16:45:36.089Z,239.84
2023-06-07T16:46:36.126Z,241.04
2023-06-07T16:47:35.122Z,238.45
2023-06-07T16:48:36.073Z,240.82
2023-06-07T16:49:35.113Z,241.01
2023-06-07T16:50:36.047Z,239.09
2023-06-07T16:51:35.043Z,240.89
2023-06-07T16:52:35.027Z,242.63
2023-06-07T16:53:36.049Z,241.10
2023-06-07T16:54:35.039Z,239.88
2023-06-07T16:55:35.366Z,240.78
2023-06-07T16:56:36.006Z,243.07
2023-06-07T16:57:38.850Z,243.31
2023-06-07T16:58:34.996Z,243.43
2023-06-07T16:59:35.018Z,243.10
2023-06-07T17:00:35.987Z,243.70
2023-06-07T17:01:36.049Z,242.50
2023-06-07T17:02:35.163Z,243.55
2023-06-07T17:03:36.077Z,242.24
2023-06-07T17:04:34.954Z,243.31
2023-06-07T17:05:34.987Z,243.12
2023-06-07T17:06:34.948Z,241.50
2023-06-07T17:07:34.931Z,240.93
2023-06-07T17:08:34.950Z,240.59
2023-06-07T17:09:35.918Z,239.91
2023-06-07T17:10:35.919Z,240.87
2023-06-07T17:11:35.894Z,240.08
2023-06-07T17:12:35.903Z,239.36
2023-06-07T17:13:34.888Z,241.56
2023-06-07T17:14:35.895Z,243.98
2023-06-07T17:15:35.904Z,242.23
2023-06-07T17:16:35.947Z,242.02
2023-06-07T17:17:36.026Z,242.06
2023-06-07T17:18:34.862Z,242.05
2023-06-07T17:19:34.856Z,240.54
2023-06-07T17:20:34.870Z,241.50
2023-06-07T17:21:35.861Z,239.56
2023-06-07T17:22:34.818Z,241.00
2023-06-07T17:23:35.861Z,242.84
2023-06-07T17:24:35.903Z,241.73
2023-06-07T17:25:34.848Z,241.38
2023-06-07T17:26:35.881Z,242.39
2023-06-07T17:27:34.902Z,243.16
2023-06-07T17:28:35.916Z,241.09
2023-06-07T17:29:34.948Z,242.62
2023-06-07T17:30:34.944Z,241.53
2023-06-07T17:31:36.032Z,241.59
2023-06-07T17:32:36.096Z,240.77
2023-06-07T17:33:35.003Z,239.66
2023-06-07T17:34:36.028Z,241.54
2023-06-07T17:35:35.020Z,239.84
2023-06-07T17:36:35.031Z,238.76
2023-06-07T17:37:36.059Z,240.29
2023-06-07T17:38:36.074Z,240.42
2023-06-07T17:39:35.116Z,239.21
2023-06-07T17:40:36.103Z,240.07
2023-06-07T17:41:36.115Z,240.51
2023-06-07T17:42:35.159Z,242.96
2023-06-07T17:43:36.172Z,240.20
2023-06-07T17:44:36.218Z,242.59
2023-06-07T17:45:35.232Z,242.00
2023-06-07T17:46:35.345Z,241.73
2023-06-07T17:47:36.296Z,241.24
2023-06-07T17:48:36.266Z,240.84
2023-06-07T17:49:36.283Z,241.21
2023-06-07T17:51:36.299Z,239.79
2023-06-07T17:52:35.306Z,240.45
2023-06-07T17:53:35.300Z,240.46
2023-06-07T17:54:35.295Z,241.55
2023-06-07T17:55:35.293Z,241.76
2023-06-07T17:56:36.288Z,241.78
2023-06-07T17:57:35.270Z,242.53
2023-06-07T17:58:36.278Z,243.41
2023-06-07T17:59:36.304Z,241.88
2023-06-07T18:00:35.225Z,241.03
2023-06-07T18:01:36.265Z,244.38
2023-06-07T18:02:35.269Z,243.39
2023-06-07T18:03:36.343Z,241.84
2023-06-07T18:04:36.228Z,242.13
2023-06-07T18:05:35.218Z,242.32
2023-06-07T18:06:35.205Z,243.30
2023-06-07T18:07:36.249Z,241.46
2023-06-07T18:08:36.193Z,243.09